ADDS METAR Data INFO
IDs: Format: Raw Decoded Include TAF

Data at: 0453 UTC 25 May 2018

METAR for:PASD (Sand Point Arpt, AK, US)
Text:PASD 250356Z AUTO VRB03KT 10SM -RA OVC026 07/04 A2960 RMK AO2 RAB11 SLP027 T00670039 PNO $
Temperature: 6.7°C ( 44°F)
Dewpoint: 3.9°C ( 39°F) [RH = 82%]
Pressure (altimeter):29.60 inches Hg (1002.5 mb) [Sea level pressure: 1002.7 mb]
Winds:variable direction winds at 3 MPH (3 knots; 1.5 m/s)
Visibility:10 or more sm (16+ km)
Ceiling:2600 feet AGL
Clouds: overcast cloud deck at 2600 feet AGL
Weather:-RA (light rain)
QC Flag:automated observation with no human augmentation; SOME DATA ABOVE MAY BE INACCURATE!!!"$" is an indication the sensor requires maintenance.
Text:PASD 250310Z AUTO 05003KT 10SM BKN028 OVC034 07/04 A2960 RMK AO2 PNO $
Temperature: 7.0°C ( 45°F)
Dewpoint: 4.0°C ( 39°F) [RH = 81%]
Pressure (altimeter):29.60 inches Hg (1002.5 mb)
Winds:from the NE (50 degrees) at 3 MPH (3 knots; 1.5 m/s)
Visibility:10 or more sm (16+ km)
Ceiling:2800 feet AGL
Clouds: broken clouds at 2800 feet AGL, overcast cloud deck at 3400 feet AGL
QC Flag:automated observation with no human augmentation; SOME DATA ABOVE MAY BE INACCURATE!!!"$" is an indication the sensor requires maintenance.
Text:PASD 250258Z 03005KT 10SM FEW014 BKN028 BKN036 07/04 A2960 RMK AO2 VCSH SW LAST PNO $
Temperature: 7.0°C ( 45°F)
Dewpoint: 4.0°C ( 39°F) [RH = 81%]
Pressure (altimeter):29.60 inches Hg (1002.5 mb)
Winds:from the NNE (30 degrees) at 6 MPH (5 knots; 2.6 m/s)
Visibility:10 or more sm (16+ km)
Ceiling:2800 feet AGL
Clouds: few clouds at 1400 feet AGL, broken clouds at 2800 feet AGL, broken clouds at 3600 feet AGL
QC Flag:SOME DATA ABOVE MAY BE INACCURATE!!!"$" is an indication the sensor requires maintenance.
Text:PASD 250256Z 03005KT 10SM FEW014 BKN028 BKN036 07/04 A2960 RMK AO2 RAE38 SLP025 VCSH SW LAST 6//// T00720039 50000 PNO $
Temperature: 7.2°C ( 45°F)
Dewpoint: 3.9°C ( 39°F) [RH = 80%]
Pressure (altimeter):29.60 inches Hg (1002.5 mb) [Sea level pressure: 1002.5 mb]
Winds:from the NNE (30 degrees) at 6 MPH (5 knots; 2.6 m/s)
Visibility:10 or more sm (16+ km)
Ceiling:2800 feet AGL
Clouds: few clouds at 1400 feet AGL, broken clouds at 2800 feet AGL, broken clouds at 3600 feet AGL
QC Flag:SOME DATA ABOVE MAY BE INACCURATE!!!"$" is an indication the sensor requires maintenance.
Text:PASD 250156Z 00000KT 10SM -RA FEW017 BKN024 OVC030 07/03 A2960 RMK AO2 DZE55RAB55 SLP026 T00670033 PNO $
Temperature: 6.7°C ( 44°F)
Dewpoint: 3.3°C ( 38°F) [RH = 79%]
Pressure (altimeter):29.60 inches Hg (1002.5 mb) [Sea level pressure: 1002.6 mb]
Winds:calm
Visibility:10 or more sm (16+ km)
Ceiling:2400 feet AGL
Clouds: few clouds at 1700 feet AGL, broken clouds at 2400 feet AGL, overcast cloud deck at 3000 feet AGL
Weather:-RA (light rain)
QC Flag:SOME DATA ABOVE MAY BE INACCURATE!!!"$" is an indication the sensor requires maintenance.
Text:PASD 250056Z 18006KT 10SM -DZ SCT019 BKN034 OVC060 07/03 A2960 RMK AO2 SLP025 T00720028 PNO $
Temperature: 7.2°C ( 45°F)
Dewpoint: 2.8°C ( 37°F) [RH = 74%]
Pressure (altimeter):29.60 inches Hg (1002.5 mb) [Sea level pressure: 1002.5 mb]
Winds:from the S (180 degrees) at 7 MPH (6 knots; 3.1 m/s)
Visibility:10 or more sm (16+ km)
Ceiling:3400 feet AGL
Clouds: scattered clouds at 1900 feet AGL, broken clouds at 3400 feet AGL, overcast cloud deck at 6000 feet AGL
Weather:-DZ (light drizzle)
QC Flag:SOME DATA ABOVE MAY BE INACCURATE!!!"$" is an indication the sensor requires maintenance.
Text:PASD 250053Z 18007KT 10SM -DZ SCT019 BKN034 OVC060 07/03 A2960 RMK AO2 PNO $
Temperature: 7.0°C ( 45°F)
Dewpoint: 3.0°C ( 37°F) [RH = 76%]
Pressure (altimeter):29.60 inches Hg (1002.5 mb)
Winds:from the S (180 degrees) at 8 MPH (7 knots; 3.6 m/s)
Visibility:10 or more sm (16+ km)
Ceiling:3400 feet AGL
Clouds: scattered clouds at 1900 feet AGL, broken clouds at 3400 feet AGL, overcast cloud deck at 6000 feet AGL
Weather:-DZ (light drizzle)
QC Flag:SOME DATA ABOVE MAY BE INACCURATE!!!"$" is an indication the sensor requires maintenance.
Text:PASD 242356Z 20005KT 10SM -DZ FEW019 BKN034 OVC060 07/04 A2960 RMK AO2 DZB18 SLP025 6//// T00670044 10083 20056 51007 PNO $
Temperature: 6.7°C ( 44°F)
Dewpoint: 4.4°C ( 40°F) [RH = 85%]
Pressure (altimeter):29.60 inches Hg (1002.5 mb) [Sea level pressure: 1002.5 mb]
Winds:from the SSW (200 degrees) at 6 MPH (5 knots; 2.6 m/s)
Visibility:10 or more sm (16+ km)
Ceiling:3400 feet AGL
Clouds: few clouds at 1900 feet AGL, broken clouds at 3400 feet AGL, overcast cloud deck at 6000 feet AGL
Weather:-DZ (light drizzle)
QC Flag:SOME DATA ABOVE MAY BE INACCURATE!!!"$" is an indication the sensor requires maintenance.

TAF for:PASD (Sand Point Arpt, AK, US) issued at 2346 UTC 24 May 2018
Text:PASD 242346Z 2500/2524 20006KT P6SM VCSH SCT020 BKN035
Forecast period:0000 to 1500 UTC 25 May 2018
Forecast type:FROM: standard forecast or significant change
Winds:from the SSW (200 degrees) at 7 MPH (6 knots; 3.1 m/s)
Visibility:6 or more sm (10+ km)
Ceiling:3500 feet AGL
Clouds: scattered clouds at 2000 feet AGL, broken clouds at 3500 feet AGL
Weather:VCSH (showers in vicinity)
Text:TEMPO 2500/2503 BKN020 OVC035
Forecast period:0000 to 0300 UTC 25 May 2018
Forecast type:TEMPORARY: The following changes expected for less than half the time period
Ceiling:2000 feet AGL
Clouds: broken clouds at 2000 feet AGL, overcast cloud deck at 3500 feet AGL
Text:FM251500 01004KT P6SM -SHRA SCT010 BKN025 AMD LTD TO CLD VIS AND WIND
Forecast period:1500 UTC 25 May 2018 to 0000 UTC 26 May 2018
Forecast type:FROM: standard forecast or significant change
Winds:from the N (10 degrees) at 5 MPH (4 knots; 2.1 m/s)
Visibility:6 or more sm (10+ km)
Ceiling:2500 feet AGL
Clouds: scattered clouds at 1000 feet AGL, broken clouds at 2500 feet AGL
Weather:-SHRA (light rain showers)